Time;durP1;ratioP1;P1;durP2;ratioP2;P2;SDS_P1;SDS_P2;PMS_P1;PMS_P2;Temp;Humidity;BMP_temperature;BMP_pressure;BME280_temperature;BME280_humidity;BME280_pressure;Samples;Min_cycle;Max_cycle;Signal;HPM_P1;HPM_P2
2022/01/17 00:03:06;;;;;;;4.75;1.27;;;8.10;99.90;;;;;;10525459;28;20104;-66
2022/01/17 00:08:07;;;;;;;4.55;1.20;;;8.10;99.90;;;;;;10526948;28;20047;-66
2022/01/17 00:13:10;;;;;;;3.20;1.17;;;8.10;99.90;;;;;;10528579;28;20054;-67
2022/01/17 00:23:13;;;;;;;5.82;1.55;;;8.10;99.90;;;;;;10527403;28;20017;-66
2022/01/17 00:28:14;;;;;;;3.58;1.27;;;8.10;99.90;;;;;;10529782;28;20020;-66
2022/01/17 00:33:15;;;;;;;5.50;1.23;;;8.10;99.90;;;;;;10530496;28;20048;-66
2022/01/17 00:38:15;;;;;;;2.40;1.00;;;8.10;99.90;;;;;;10530887;28;20072;-66
2022/01/17 00:43:16;;;;;;;5.95;1.13;;;8.10;99.90;;;;;;10537667;28;20131;-67
2022/01/17 00:48:17;;;;;;;5.63;0.80;;;8.40;99.90;;;;;;10530322;28;20489;-66
2022/01/17 00:53:18;;;;;;;3.75;1.05;;;8.10;99.90;;;;;;10521647;28;20385;-67
2022/01/17 00:58:18;;;;;;;5.55;1.00;;;8.10;99.90;;;;;;10524056;28;20093;-66
2022/01/17 01:03:19;;;;;;;2.55;1.77;;;8.10;99.90;;;;;;10520711;28;20024;-66
2022/01/17 01:08:20;;;;;;;5.57;1.10;;;8.10;99.90;;;;;;10534757;28;20028;-67
2022/01/17 01:13:24;;;;;;;3.75;0.88;;;8.10;99.90;;;;;;10527454;28;20110;-66
2022/01/17 01:28:52;;;;;;;;;;;8.10;99.90;;;;;;10529038;28;20094;-66
2022/01/17 01:33:55;;;;;;;2.75;0.50;;;8.10;99.90;;;;;;10527726;28;20553;-66
2022/01/17 01:38:56;;;;;;;4.60;1.58;;;8.10;99.90;;;;;;10528344;28;20064;-66
2022/01/17 01:43:59;;;;;;;4.57;0.82;;;8.00;99.90;;;;;;10534733;28;20051;-67
2022/01/17 01:49:00;;;;;;;4.55;1.10;;;8.00;99.90;;;;;;10527788;28;20475;-67
2022/01/17 01:54:01;;;;;;;12.60;1.38;;;8.00;99.90;;;;;;10518925;28;20028;-67
2022/01/17 01:59:02;;;;;;;4.82;0.93;;;8.00;99.90;;;;;;10493436;28;20696;-67
2022/01/17 02:04:04;;;;;;;3.00;0.77;;;8.10;99.90;;;;;;10515403;28;20046;-67
2022/01/17 02:09:05;;;;;;;6.03;1.00;;;8.00;99.90;;;;;;10527304;28;20103;-67
2022/01/17 02:14:06;;;;;;;6.82;1.38;;;8.00;99.90;;;;;;10527156;28;20032;-66
2022/01/17 02:19:06;;;;;;;4.97;1.00;;;8.00;99.90;;;;;;10528253;28;20502;-67
2022/01/17 02:24:07;;;;;;;10.77;1.58;;;8.00;99.90;;;;;;10521995;28;20381;-67
2022/01/17 02:29:08;;;;;;;7.63;1.00;;;8.00;99.90;;;;;;10526780;28;20042;-67
2022/01/17 02:34:10;;;;;;;4.30;1.25;;;8.00;99.90;;;;;;10526400;28;20048;-67
2022/01/17 02:39:12;;;;;;;5.50;0.90;;;7.90;99.90;;;;;;10526305;28;20028;-66
2022/01/17 02:44:13;;;;;;;6.45;1.05;;;8.00;99.90;;;;;;10533008;28;20020;-66
2022/01/17 02:49:14;;;;;;;4.38;0.82;;;7.90;99.90;;;;;;10532563;28;20016;-66
2022/01/17 02:54:15;;;;;;;4.50;1.15;;;7.90;99.90;;;;;;10525216;28;20502;-66
2022/01/17 02:59:16;;;;;;;3.03;1.00;;;7.90;99.90;;;;;;10540545;28;20032;-67
2022/01/17 03:04:16;;;;;;;6.53;0.80;;;7.90;99.90;;;;;;10535271;28;20049;-67
2022/01/17 03:09:18;;;;;;;4.07;0.70;;;7.90;99.90;;;;;;10541549;28;20032;-67
2022/01/17 03:14:18;;;;;;;2.50;0.77;;;7.90;99.90;;;;;;10533918;28;20029;-66
2022/01/17 03:19:19;;;;;;;5.50;1.10;;;8.10;99.90;;;;;;10537436;28;20032;-67
2022/01/17 03:24:20;;;;;;;4.35;0.80;;;7.90;99.90;;;;;;10532151;28;20024;-66
2022/01/17 03:29:20;;;;;;;5.15;0.90;;;7.80;99.90;;;;;;10530617;28;20032;-66
2022/01/17 03:34:21;;;;;;;3.20;0.90;;;7.90;99.90;;;;;;10525384;28;20437;-66
2022/01/17 03:39:22;;;;;;;4.10;0.70;;;8.00;99.90;;;;;;10529575;28;20501;-66
2022/01/17 03:44:22;;;;;;;5.32;1.10;;;7.80;99.90;;;;;;10540512;28;20032;-67
2022/01/17 03:49:23;;;;;;;4.32;0.90;;;7.80;99.90;;;;;;10527468;28;20122;-66
2022/01/17 03:54:24;;;;;;;5.00;0.85;;;7.80;99.90;;;;;;10524997;28;20055;-67
2022/01/17 03:59:25;;;;;;;3.13;0.50;;;7.80;99.90;;;;;;10507528;28;20079;-67
2022/01/17 04:04:25;;;;;;;5.93;1.08;;;7.80;99.90;;;;;;10532631;28;20042;-67
2022/01/17 04:09:26;;;;;;;8.82;0.93;;;7.80;99.90;;;;;;10529405;28;20032;-66
2022/01/17 04:14:27;;;;;;;5.40;0.68;;;7.80;99.90;;;;;;10531779;28;20040;-66
2022/01/17 04:19:28;;;;;;;7.82;0.82;;;7.80;99.90;;;;;;10534756;28;20024;-66
2022/01/17 04:24:29;;;;;;;5.53;0.80;;;7.80;99.90;;;;;;10528955;28;20028;-67
2022/01/17 04:29:29;;;;;;;3.25;0.77;;;7.80;99.90;;;;;;10531445;28;20032;-66
2022/01/17 04:34:32;;;;;;;3.38;1.33;;;7.80;99.90;;;;;;10531110;28;20525;-66
2022/01/17 04:39:35;;;;;;;2.08;0.70;;;7.80;99.90;;;;;;10517663;28;20045;-66
2022/01/17 04:49:55;;;;;;;5.05;0.60;;;7.80;99.90;;;;;;10524769;28;20037;-66
2022/01/17 04:55:00;;;;;;;3.03;0.60;;;7.80;99.90;;;;;;10526992;28;20094;-67
2022/01/17 05:00:02;;;;;;;5.85;0.90;;;7.70;99.90;;;;;;10506931;28;20039;-67
2022/01/17 05:05:04;;;;;;;4.28;1.05;;;7.80;99.90;;;;;;10513041;28;20455;-67
2022/01/17 05:10:09;;;;;;;3.70;0.80;;;7.70;99.90;;;;;;10523044;28;20377;-67
2022/01/17 05:15:22;;;;;;;3.97;0.60;;;7.80;99.90;;;;;;10526054;28;20048;-67
2022/01/17 05:20:23;;;;;;;7.95;0.93;;;7.80;99.90;;;;;;10527704;28;20039;-66
2022/01/17 05:25:24;;;;;;;2.63;0.70;;;7.80;99.90;;;;;;10529493;28;20034;-66
2022/01/17 05:30:25;;;;;;;5.65;1.30;;;7.80;99.90;;;;;;10528597;28;20047;-66
2022/01/17 05:35:27;;;;;;;2.65;0.73;;;7.80;99.90;;;;;;10524429;28;20046;-67
2022/01/17 05:40:31;;;;;;;5.32;0.63;;;7.80;99.90;;;;;;10532864;28;20375;-67
2022/01/17 05:45:31;;;;;;;5.45;0.80;;;7.80;99.90;;;;;;10535282;28;20024;-66
2022/01/17 05:50:32;;;;;;;8.23;0.93;;;7.80;99.90;;;;;;10509515;28;20036;-66
2022/01/17 05:55:33;;;;;;;3.78;0.70;;;7.80;99.90;;;;;;10528898;28;20044;-67
2022/01/17 06:00:34;;;;;;;9.95;1.05;;;7.80;99.90;;;;;;10521200;28;20078;-67
2022/01/17 06:05:35;;;;;;;6.13;0.95;;;7.80;99.90;;;;;;10525574;28;20387;-66
2022/01/17 06:10:35;;;;;;;5.90;0.90;;;7.80;99.90;;;;;;10527181;28;20035;-67
2022/01/17 06:15:36;;;;;;;2.95;0.95;;;7.80;99.90;;;;;;10508908;28;20036;-66
2022/01/17 06:20:40;;;;;;;4.03;0.90;;;7.80;99.90;;;;;;10525548;28;20085;-66
2022/01/17 06:25:40;;;;;;;2.20;0.77;;;7.80;99.90;;;;;;10526654;28;20036;-66
2022/01/17 06:30:41;;;;;;;4.60;1.20;;;7.70;99.90;;;;;;10526883;28;20029;-66
2022/01/17 06:35:42;;;;;;;5.45;1.35;;;7.80;99.90;;;;;;10519886;28;20113;-67
2022/01/17 06:40:43;;;;;;;6.80;1.30;;;7.80;99.90;;;;;;10523221;28;20473;-66
2022/01/17 06:45:45;;;;;;;5.65;1.65;;;7.80;99.90;;;;;;10534117;28;20032;-67
2022/01/17 06:50:46;;;;;;;4.47;1.20;;;7.80;99.90;;;;;;10517320;28;20032;-65
2022/01/17 06:55:47;;;;;;;5.90;1.58;;;7.80;99.90;;;;;;10525979;28;20036;-66
2022/01/17 07:00:47;;;;;;;6.35;1.60;;;7.80;99.90;;;;;;10518732;28;20040;-66
2022/01/17 07:05:48;;;;;;;3.60;1.38;;;7.80;99.90;;;;;;10521377;28;20039;-67
2022/01/17 07:10:49;;;;;;;2.97;1.83;;;7.80;99.90;;;;;;10505106;28;20024;-66
2022/01/17 07:15:50;;;;;;;4.60;1.50;;;8.60;99.90;;;;;;10523401;28;20533;-66
2022/01/17 07:20:51;;;;;;;4.57;1.40;;;7.80;99.90;;;;;;10522629;28;20021;-66
2022/01/17 07:25:51;;;;;;;4.30;1.83;;;7.80;99.90;;;;;;10524547;28;20032;-66
2022/01/17 07:30:52;;;;;;;6.82;1.88;;;7.80;99.90;;;;;;10514571;28;20116;-65
2022/01/17 07:35:52;;;;;;;4.60;1.90;;;7.80;99.90;;;;;;10501477;28;20106;-64
2022/01/17 07:40:53;;;;;;;7.13;1.83;;;7.80;99.90;;;;;;10497838;28;20032;-63
2022/01/17 07:46:13;;;;;;;5.93;2.40;;;7.80;99.90;;;;;;10498607;28;20031;-65
2022/01/17 07:51:14;;;;;;;7.93;2.17;;;7.80;99.90;;;;;;10506980;28;20085;-65
2022/01/17 07:56:14;;;;;;;4.20;1.58;;;7.80;99.90;;;;;;10515340;28;20081;-65
2022/01/17 08:01:15;;;;;;;5.68;1.75;;;7.90;99.90;;;;;;10522916;28;20027;-65
2022/01/17 08:06:16;;;;;;;3.30;1.50;;;7.90;99.90;;;;;;10530751;28;20040;-65
2022/01/17 08:11:18;;;;;;;4.97;2.13;;;7.80;99.90;;;;;;10499266;28;20025;-66
2022/01/17 08:16:19;;;;;;;7.65;2.20;;;7.90;99.90;;;;;;10497985;28;20674;-65
2022/01/17 08:21:20;;;;;;;5.05;1.98;;;7.90;99.90;;;;;;10497741;28;20035;-65
2022/01/17 08:26:21;;;;;;;9.18;2.15;;;7.90;99.90;;;;;;10500270;28;20031;-65
2022/01/17 08:31:22;;;;;;;4.05;1.80;;;7.90;99.90;;;;;;10495494;28;20027;-65
2022/01/17 08:36:23;;;;;;;2.92;1.35;;;7.90;99.90;;;;;;10496823;28;20049;-65
2022/01/17 08:41:23;;;;;;;6.32;1.60;;;7.90;99.90;;;;;;10496703;28;20032;-65
2022/01/17 08:46:24;;;;;;;4.10;1.60;;;7.90;99.90;;;;;;10500606;28;20024;-66
2022/01/17 08:51:25;;;;;;;6.15;1.75;;;7.90;99.90;;;;;;10505440;28;20025;-67
2022/01/17 08:56:28;;;;;;;6.18;1.60;;;8.00;99.90;;;;;;10509489;28;20043;-65
2022/01/17 09:01:29;;;;;;;4.80;1.80;;;8.10;99.90;;;;;;10507371;28;20028;-64
2022/01/17 09:06:30;;;;;;;7.35;1.77;;;8.00;99.90;;;;;;10484912;28;20035;-64
2022/01/17 09:11:31;;;;;;;8.02;1.65;;;8.00;99.90;;;;;;10494995;28;20404;-64
2022/01/17 09:16:31;;;;;;;5.28;1.20;;;8.00;99.90;;;;;;10514784;28;20036;-64
2022/01/17 09:21:32;;;;;;;3.67;1.80;;;8.00;99.90;;;;;;10531079;28;20115;-64
2022/01/17 09:26:33;;;;;;;9.10;2.13;;;8.10;99.90;;;;;;10500969;28;20042;-64
2022/01/17 09:31:34;;;;;;;8.63;1.67;;;8.10;99.90;;;;;;10522165;28;20455;-64
2022/01/17 09:36:35;;;;;;;5.15;1.80;;;8.10;99.90;;;;;;10528414;28;20845;-64
2022/01/17 09:41:35;;;;;;;5.53;2.00;;;8.10;99.90;;;;;;10530632;28;20043;-62
2022/01/17 09:46:41;;;;;;;3.35;1.27;;;8.20;99.90;;;;;;10531294;28;20304;-61
2022/01/17 09:56:59;;;;;;;10.85;1.80;;;8.20;99.90;;;;;;10503269;28;20085;-65
2022/01/17 10:02:00;;;;;;;3.95;1.58;;;8.20;99.90;;;;;;10512742;28;20020;-65
2022/01/17 10:07:01;;;;;;;4.05;1.27;;;8.30;99.90;;;;;;10521162;28;20020;-64
2022/01/17 10:12:03;;;;;;;4.13;1.45;;;8.30;99.90;;;;;;10519270;28;20078;-63
2022/01/17 10:17:06;;;;;;;4.45;1.40;;;8.30;99.90;;;;;;10525003;28;20044;-65
2022/01/17 10:22:18;;;;;;;5.13;1.50;;;8.30;99.90;;;;;;10525686;28;20024;-64
2022/01/17 10:38:06;;;;;;;6.97;1.90;;;8.50;99.90;;;;;;10506246;28;20531;-65
2022/01/17 10:43:22;;;;;;;5.22;1.25;;;8.40;99.90;;;;;;10519209;28;20032;-63
2022/01/17 10:48:31;;;;;;;7.38;1.95;;;8.40;99.90;;;;;;10512085;28;20404;-63
2022/01/17 10:53:32;;;;;;;8.05;1.55;;;8.50;99.90;;;;;;10507369;28;20437;-64
2022/01/17 10:58:35;;;;;;;4.97;1.50;;;8.60;99.90;;;;;;10521865;28;20037;-64
2022/01/17 11:03:38;;;;;;;10.98;1.77;;;8.50;99.90;;;;;;10519843;28;20130;-63
2022/01/17 11:08:41;;;;;;;5.20;1.60;;;8.60;99.90;;;;;;10514545;28;20028;-63
2022/01/17 11:13:48;;;;;;;6.68;1.42;;;8.60;99.90;;;;;;10521138;28;20036;-63
2022/01/17 11:18:58;;;;;;;6.97;1.80;;;8.70;99.90;;;;;;10504165;28;20485;-63
2022/01/17 11:24:01;;;;;;;6.80;1.70;;;8.80;99.90;;;;;;10508918;28;20123;-64
2022/01/17 11:29:02;;;;;;;6.28;1.55;;;8.80;99.90;;;;;;10533318;28;20020;-64
2022/01/17 11:34:04;;;;;;;3.97;1.10;;;8.80;99.90;;;;;;10532367;28;20063;-65
2022/01/17 11:39:07;;;;;;;4.25;1.30;;;8.90;99.90;;;;;;10527715;28;20442;-64
2022/01/17 11:44:09;;;;;;;8.15;1.55;;;8.90;99.90;;;;;;10520008;28;20031;-63
2022/01/17 11:49:11;;;;;;;5.32;1.30;;;8.90;99.90;;;;;;10532650;28;20064;-63
2022/01/17 11:54:17;;;;;;;7.95;2.08;;;8.90;99.90;;;;;;10518912;28;20081;-63
2022/01/17 11:59:34;;;;;;;6.35;1.40;;;8.90;99.90;;;;;;10523973;28;20047;-64
2022/01/17 12:04:35;;;;;;;18.10;3.33;;;9.00;99.90;;;;;;10528367;28;20024;-66
2022/01/17 12:09:43;;;;;;;18.85;4.13;;;9.00;99.90;;;;;;10531980;28;20028;-64
2022/01/17 12:14:54;;;;;;;19.58;3.42;;;9.20;99.90;;;;;;10529791;28;20025;-70
2022/01/17 12:20:04;;;;;;;25.10;3.75;;;9.20;99.90;;;;;;10530563;28;20029;-66
2022/01/17 12:25:32;;;;;;;27.65;3.80;;;9.30;99.90;;;;;;10515782;28;20028;-67
2022/01/17 12:30:55;;;;;;;20.42;3.50;;;9.20;99.90;;;;;;10533032;28;20032;-68
2022/01/17 12:35:58;;;;;;;21.77;3.10;;;9.20;99.90;;;;;;10532955;28;20048;-69
2022/01/17 12:40:59;;;;;;;21.95;3.15;;;9.20;99.90;;;;;;10532281;28;20505;-65
2022/01/17 12:46:04;;;;;;;14.20;2.90;;;9.30;99.90;;;;;;10539144;28;20618;-64
2022/01/17 12:51:08;;;;;;;24.70;4.07;;;9.30;99.90;;;;;;10519346;28;20360;-65
2022/01/17 12:56:09;;;;;;;24.95;3.88;;;9.30;99.90;;;;;;10532370;28;20036;-64
2022/01/17 13:01:15;;;;;;;21.23;3.60;;;9.30;99.90;;;;;;10523951;28;20025;-64
2022/01/17 13:06:19;;;;;;;29.67;4.18;;;9.20;99.90;;;;;;10524533;28;20032;-64
2022/01/17 13:11:22;;;;;;;20.70;4.25;;;9.20;99.90;;;;;;10521171;28;20567;-64
2022/01/17 13:16:22;;;;;;;28.13;4.25;;;9.10;99.90;;;;;;10518022;28;20063;-64
2022/01/17 13:21:24;;;;;;;33.33;4.35;;;9.10;99.90;;;;;;10522855;28;20131;-64
2022/01/17 13:26:34;;;;;;;22.02;3.83;;;9.00;99.90;;;;;;10509352;28;20339;-64
2022/01/17 13:31:36;;;;;;;35.67;5.10;;;9.00;99.90;;;;;;10505189;28;20479;-65
2022/01/17 13:36:37;;;;;;;21.92;4.05;;;9.00;99.90;;;;;;10523045;28;20047;-65
2022/01/17 13:41:44;;;;;;;26.05;4.20;;;9.00;99.90;;;;;;10513248;28;20437;-65
2022/01/17 13:47:01;;;;;;;30.55;4.80;;;9.20;99.90;;;;;;10517073;28;20148;-64
2022/01/17 13:52:04;;;;;;;32.25;4.55;;;9.00;99.90;;;;;;10517495;28;20103;-64
2022/01/17 13:57:28;;;;;;;26.00;3.80;;;9.00;99.90;;;;;;10530620;28;20055;-64
2022/01/17 14:02:36;;;;;;;24.38;3.28;;;9.00;99.90;;;;;;10527369;28;20020;-65
2022/01/17 14:07:37;;;;;;;23.30;4.07;;;9.00;99.90;;;;;;10524901;28;20024;-64
2022/01/17 14:12:40;;;;;;;22.33;4.05;;;9.00;99.90;;;;;;10518254;28;20484;-64
2022/01/17 14:17:41;;;;;;;30.67;4.05;;;8.90;99.90;;;;;;10521158;28;20036;-64
2022/01/17 14:22:49;;;;;;;19.02;3.33;;;8.90;99.90;;;;;;10522481;28;20465;-64
2022/01/17 14:28:08;;;;;;;28.73;3.83;;;8.90;99.90;;;;;;10524990;28;20036;-65
2022/01/17 14:33:13;;;;;;;;;;;8.90;99.90;;;;;;10514045;28;20702;-64
2022/01/17 14:38:13;;;;;;;23.50;4.50;;;8.90;99.90;;;;;;10524379;28;19935;-64
2022/01/17 14:43:14;;;;;;;22.88;3.78;;;8.90;99.90;;;;;;10531123;28;20028;-64
2022/01/17 14:48:16;;;;;;;16.42;2.92;;;8.90;99.90;;;;;;10474894;28;20109;-63
2022/01/17 14:53:17;;;;;;;20.27;2.95;;;8.90;99.90;;;;;;10494192;28;20077;-64
2022/01/17 15:03:38;;;;;;;23.73;3.70;;;8.80;99.90;;;;;;10509447;28;20501;-67
2022/01/17 15:08:41;;;;;;;22.52;4.15;;;9.10;99.90;;;;;;10523038;28;20040;-67
2022/01/17 15:13:41;;;;;;;26.83;3.83;;;8.90;99.90;;;;;;10525879;28;20032;-67
2022/01/17 15:18:42;;;;;;;30.88;4.63;;;8.80;99.90;;;;;;10520833;28;20044;-65
2022/01/17 15:23:43;;;;;;;22.55;3.22;;;8.80;99.90;;;;;;10520601;28;20032;-67
2022/01/17 15:28:44;;;;;;;19.65;4.50;;;8.80;99.90;;;;;;10525740;28;20020;-65
2022/01/17 15:33:47;;;;;;;22.85;4.07;;;8.70;99.90;;;;;;10525346;28;20051;-66
2022/01/17 15:38:47;;;;;;;25.77;3.67;;;8.70;99.90;;;;;;10525717;28;20040;-61
2022/01/17 15:43:54;;;;;;;24.60;3.10;;;8.80;99.90;;;;;;10532037;28;20028;-61
2022/01/17 15:48:54;;;;;;;24.65;3.67;;;8.80;99.90;;;;;;10521318;28;20098;-62
2022/01/17 15:53:55;;;;;;;34.10;5.15;;;8.70;99.90;;;;;;10518001;28;20439;-62
2022/01/17 15:58:56;;;;;;;25.55;3.85;;;8.80;99.90;;;;;;10525738;28;20040;-63
2022/01/17 16:03:58;;;;;;;20.05;3.63;;;8.90;99.90;;;;;;10522293;28;20055;-59
2022/01/17 16:08:58;;;;;;;18.70;4.18;;;9.10;99.90;;;;;;10514375;28;20474;-58
2022/01/17 16:13:59;;;;;;;22.80;3.40;;;9.20;99.90;;;;;;10505114;28;20034;-60
2022/01/17 16:19:01;;;;;;;15.40;3.80;;;9.30;99.90;;;;;;10525126;28;20068;-62
2022/01/17 16:24:03;;;;;;;19.08;2.72;;;9.30;99.90;;;;;;10526911;28;20020;-60
2022/01/17 16:29:05;;;;;;;18.77;2.67;;;9.30;99.90;;;;;;10516421;28;20020;-59
2022/01/17 16:34:05;;;;;;;17.98;2.88;;;9.30;99.90;;;;;;10525743;28;20101;-60
2022/01/17 16:39:06;;;;;;;22.83;3.22;;;9.30;99.90;;;;;;10529918;28;20047;-60
2022/01/17 16:44:07;;;;;;;16.60;2.42;;;9.20;99.90;;;;;;10535621;28;20028;-61
2022/01/17 16:49:08;;;;;;;19.30;2.58;;;9.30;99.90;;;;;;10529614;28;20024;-60
2022/01/17 16:54:09;;;;;;;18.95;3.38;;;9.30;99.90;;;;;;10502930;28;20520;-60
2022/01/17 16:59:09;;;;;;;28.05;3.38;;;9.30;99.90;;;;;;10518350;28;20032;-60
2022/01/17 17:04:10;;;;;;;16.48;4.43;;;9.40;99.90;;;;;;10512376;28;20486;-60
2022/01/17 17:09:10;;;;;;;12.15;3.10;;;9.30;99.90;;;;;;10500821;28;20789;-60
2022/01/17 17:14:13;;;;;;;13.18;3.00;;;9.30;99.90;;;;;;10525372;28;20117;-62
2022/01/17 17:19:14;;;;;;;20.10;3.05;;;9.30;99.90;;;;;;10523235;28;20040;-63
2022/01/17 17:24:15;;;;;;;10.63;2.65;;;9.30;99.90;;;;;;10526052;28;20028;-62
2022/01/17 17:29:17;;;;;;;17.63;2.30;;;9.20;99.90;;;;;;10528072;28;20020;-61
2022/01/17 17:34:18;;;;;;;16.63;3.00;;;9.30;99.90;;;;;;10518959;28;20269;-61
2022/01/17 17:39:19;;;;;;;13.13;2.47;;;9.30;99.90;;;;;;10479040;28;20420;-60
2022/01/17 17:44:20;;;;;;;11.70;2.60;;;9.30;99.90;;;;;;10469950;28;20044;-60
2022/01/17 17:49:21;;;;;;;17.63;3.55;;;9.20;99.90;;;;;;10462793;28;20092;-62
2022/01/17 17:54:21;;;;;;;12.23;2.00;;;9.20;99.90;;;;;;10465025;28;20140;-61
2022/01/17 17:59:22;;;;;;;15.80;2.95;;;9.30;99.90;;;;;;10497046;28;20040;-61
2022/01/17 18:04:23;;;;;;;17.25;2.60;;;9.30;99.90;;;;;;10463130;28;20020;-59
2022/01/17 18:09:24;;;;;;;17.13;2.35;;;9.30;99.90;;;;;;10463317;28;20483;-62
2022/01/17 18:14:25;;;;;;;12.77;2.58;;;9.30;99.90;;;;;;10481424;28;20419;-61
2022/01/17 18:19:26;;;;;;;18.27;2.83;;;9.30;99.90;;;;;;10473727;28;20032;-61
2022/01/17 18:24:28;;;;;;;15.15;2.65;;;9.30;99.90;;;;;;10468672;28;20035;-61
2022/01/17 18:29:29;;;;;;;11.32;2.65;;;9.30;99.90;;;;;;10464167;28;20534;-62
2022/01/17 18:34:29;;;;;;;10.35;2.25;;;9.30;99.90;;;;;;10462955;28;20056;-62
2022/01/17 18:39:31;;;;;;;17.02;2.50;;;9.30;99.90;;;;;;10519200;28;20417;-62
2022/01/17 18:44:31;;;;;;;13.55;2.38;;;9.30;99.90;;;;;;10519809;28;20040;-63
2022/01/17 18:49:34;;;;;;;10.38;2.20;;;9.20;99.90;;;;;;10515124;28;20024;-64
2022/01/17 18:54:35;;;;;;;9.55;1.95;;;9.30;99.90;;;;;;10511299;28;20115;-62
2022/01/17 18:59:36;;;;;;;11.38;2.25;;;9.20;99.90;;;;;;10520048;28;20060;-61
2022/01/17 19:04:38;;;;;;;9.85;2.20;;;9.20;99.90;;;;;;10501289;28;20111;-61
2022/01/17 19:09:38;;;;;;;14.98;2.55;;;9.20;99.90;;;;;;10504396;28;20031;-62
2022/01/17 19:14:39;;;;;;;7.82;1.92;;;9.20;99.90;;;;;;10507276;28;20455;-62
2022/01/17 19:25:04;;;;;;;11.90;2.00;;;9.30;99.90;;;;;;10479590;28;20032;-61
2022/01/17 19:30:05;;;;;;;11.13;2.80;;;9.20;99.90;;;;;;10515155;28;20028;-63
2022/01/17 19:35:07;;;;;;;12.90;2.67;;;9.20;99.90;;;;;;10514238;28;20103;-62
2022/01/17 19:40:08;;;;;;;10.95;2.75;;;9.20;99.90;;;;;;10496411;28;20032;-63
2022/01/17 19:45:10;;;;;;;8.93;1.83;;;9.20;99.90;;;;;;10474249;28;20104;-63
2022/01/17 19:50:11;;;;;;;10.38;1.60;;;9.20;99.90;;;;;;10482149;28;20094;-63
2022/01/17 19:55:11;;;;;;;14.73;2.47;;;9.20;99.90;;;;;;10472886;28;20053;-63
2022/01/17 20:00:13;;;;;;;11.18;2.40;;;9.20;99.90;;;;;;10458338;28;20020;-62
2022/01/17 20:05:14;;;;;;;9.50;1.75;;;9.20;99.90;;;;;;10473608;28;20024;-61
2022/01/17 20:10:15;;;;;;;13.05;2.47;;;9.20;99.90;;;;;;10469695;28;20024;-61
2022/01/17 20:15:17;;;;;;;12.48;2.33;;;9.20;99.90;;;;;;10476289;28;20037;-61
2022/01/17 20:20:21;;;;;;;10.23;2.08;;;9.20;99.90;;;;;;10464938;28;20526;-61
2022/01/17 20:25:22;;;;;;;9.82;2.03;;;9.20;99.90;;;;;;10482166;28;20447;-63
2022/01/17 20:30:22;;;;;;;10.13;2.47;;;9.20;99.90;;;;;;10470023;28;20025;-63
2022/01/17 20:35:23;;;;;;;10.55;2.10;;;9.20;99.90;;;;;;10491998;28;20152;-63
2022/01/17 20:40:24;;;;;;;11.27;1.95;;;9.20;99.90;;;;;;10514013;28;20475;-60
2022/01/17 20:45:25;;;;;;;12.00;2.10;;;9.00;99.90;;;;;;10511475;28;20413;-62
2022/01/17 20:50:26;;;;;;;10.07;2.65;;;9.20;99.90;;;;;;10502409;28;20025;-63
2022/01/17 20:55:27;;;;;;;10.20;2.42;;;9.20;99.90;;;;;;10500176;28;20024;-61
2022/01/17 21:00:28;;;;;;;11.13;2.20;;;9.20;99.90;;;;;;10513325;28;20513;-62
2022/01/17 21:05:29;;;;;;;10.52;2.17;;;9.20;99.90;;;;;;10506024;28;20027;-62
2022/01/17 21:10:29;;;;;;;10.40;2.20;;;9.20;99.90;;;;;;10491805;28;20406;-62
2022/01/17 21:15:31;;;;;;;11.38;2.35;;;9.20;99.90;;;;;;10484832;28;20040;-62
2022/01/17 21:20:32;;;;;;;9.10;2.42;;;9.20;99.90;;;;;;10532562;28;20048;-61
2022/01/17 21:25:33;;;;;;;11.98;2.83;;;9.20;99.90;;;;;;10483452;28;20051;-63
2022/01/17 21:30:33;;;;;;;15.65;2.55;;;9.20;99.90;;;;;;10522885;28;20905;-62
2022/01/17 21:35:35;;;;;;;14.98;3.38;;;9.20;99.90;;;;;;10518265;28;20136;-62
2022/01/17 21:40:35;;;;;;;6.90;2.13;;;9.50;99.90;;;;;;10521334;28;20024;-61
2022/01/17 21:45:36;;;;;;;9.63;1.85;;;9.20;99.90;;;;;;10494910;28;20029;-61
2022/01/17 21:50:39;;;;;;;9.35;1.92;;;9.20;99.90;;;;;;10463091;28;20029;-61
2022/01/17 21:55:40;;;;;;;9.80;2.30;;;9.20;99.90;;;;;;10464999;28;20083;-63
2022/01/17 22:00:41;;;;;;;12.48;2.20;;;9.20;99.90;;;;;;10461580;28;20147;-63
2022/01/17 22:05:43;;;;;;;10.07;2.20;;;9.10;99.90;;;;;;10478307;28;20035;-61
2022/01/17 22:10:43;;;;;;;8.35;2.40;;;9.20;99.90;;;;;;10458187;28;20020;-61
2022/01/17 22:15:44;;;;;;;9.70;2.33;;;9.10;99.90;;;;;;10467041;28;20036;-62
2022/01/17 22:20:45;;;;;;;13.82;2.50;;;9.10;99.90;;;;;;10474289;28;20445;-61
2022/01/17 22:25:46;;;;;;;14.25;2.13;;;9.30;99.90;;;;;;10470874;28;20530;-62
2022/01/17 22:30:47;;;;;;;9.63;2.58;;;9.10;99.90;;;;;;10467288;28;20375;-62
2022/01/17 22:35:48;;;;;;;16.38;3.72;;;9.10;99.90;;;;;;10496621;28;20563;-62
2022/01/17 22:40:49;;;;;;;12.38;2.47;;;9.10;99.90;;;;;;10489334;28;20051;-62
2022/01/17 22:45:50;;;;;;;13.27;2.40;;;9.10;99.90;;;;;;10506036;28;20173;-62
2022/01/17 22:50:51;;;;;;;13.48;2.60;;;9.10;99.90;;;;;;10508710;28;20295;-63
2022/01/17 22:55:52;;;;;;;12.02;2.45;;;9.10;99.90;;;;;;10507913;28;20151;-61
2022/01/17 23:00:53;;;;;;;12.18;2.50;;;9.20;99.90;;;;;;10507250;28;20038;-62
2022/01/17 23:05:54;;;;;;;7.60;2.13;;;9.10;99.90;;;;;;10517189;28;20495;-63
2022/01/17 23:10:55;;;;;;;9.95;2.70;;;9.10;99.90;;;;;;10521848;28;20046;-63
2022/01/17 23:15:57;;;;;;;10.95;2.47;;;9.10;99.90;;;;;;10534241;28;20131;-62
2022/01/17 23:20:58;;;;;;;11.15;2.67;;;9.10;99.90;;;;;;10517959;28;20134;-63
2022/01/17 23:25:59;;;;;;;7.35;2.42;;;9.10;99.90;;;;;;10522490;28;20521;-62
2022/01/17 23:33:54;;;;;;;15.15;3.03;;;9.10;99.90;;;;;;10531532;28;20016;-62
2022/01/17 23:36:34;;;;;;;11.50;2.47;;;9.10;99.90;;;;;;10524157;28;20056;-61
2022/01/17 23:41:35;;;;;;;16.42;2.40;;;9.10;99.90;;;;;;10533840;28;20005;-61
2022/01/17 23:46:40;;;;;;;11.63;1.88;;;9.10;99.90;;;;;;10529014;28;20019;-62
2022/01/17 23:51:40;;;;;;;11.68;2.40;;;9.10;99.90;;;;;;10506874;28;20028;-61
2022/01/17 23:56:42;;;;;;;11.73;2.60;;;9.10;99.90;;;;;;10531751;28;20031;-62
